createdAt,value
2022-08-03T00:03:41.781Z,57128.34
2022-08-03T00:08:43.596Z,57128.34
2022-08-03T00:13:45.283Z,57128.34
2022-08-03T00:18:46.905Z,57128.34
2022-08-03T00:23:51.682Z,57128.34
2022-08-03T00:28:54.418Z,57128.34
2022-08-03T00:33:59.239Z,57128.34
2022-08-03T00:39:04.968Z,57128.34
2022-08-03T00:44:06.742Z,57128.34
2022-08-03T00:49:08.370Z,57128.34
2022-08-03T00:54:10.798Z,57128.34
2022-08-03T00:59:12.978Z,57128.34
2022-08-03T01:04:16.216Z,57128.34
2022-08-03T01:09:44.983Z,57128.34
2022-08-03T01:14:58.605Z,57128.34
2022-08-03T01:20:08.132Z,57128.34
2022-08-03T01:25:40.652Z,57128.34
2022-08-03T01:30:45.829Z,57128.34
2022-08-03T01:36:04.756Z,57128.34
2022-08-03T01:41:18.904Z,57128.34
2022-08-03T01:46:22.143Z,57128.34
2022-08-03T01:52:05.734Z,57128.34
2022-08-03T01:57:09.430Z,57128.34
2022-08-03T02:02:32.307Z,57128.34
2022-08-03T02:07:37.075Z,57128.34
2022-08-03T02:12:40.320Z,57128.34
2022-08-03T02:17:43.744Z,57128.34
2022-08-03T02:22:47.134Z,57128.34
2022-08-03T02:28:05.087Z,57128.34
2022-08-03T02:33:18.511Z,57128.34
2022-08-03T02:38:23.741Z,57128.34
2022-08-03T02:43:26.579Z,57128.34
2022-08-03T02:48:30.840Z,57128.34
2022-08-03T02:53:35.050Z,57128.34
2022-08-03T02:58:39.212Z,57128.34
2022-08-03T03:03:44.819Z,57128.34
2022-08-03T03:08:47.782Z,57128.34
2022-08-03T03:13:51.115Z,57128.34
2022-08-03T03:18:54.715Z,57128.34
2022-08-03T03:23:57.233Z,57128.34
2022-08-03T03:28:59.442Z,57128.34
2022-08-03T03:34:01.345Z,57128.34
2022-08-03T03:39:16.015Z,57128.34
2022-08-03T03:44:18.239Z,57128.34
2022-08-03T03:49:20.303Z,57128.34
2022-08-03T03:54:25.476Z,57128.34
2022-08-03T03:59:31.134Z,57128.34
2022-08-03T04:04:57.439Z,57128.34
2022-08-03T04:10:17.961Z,57128.34
2022-08-03T04:15:22.989Z,57128.34
2022-08-03T04:20:30.653Z,57128.34
2022-08-03T04:25:37.239Z,57128.34
2022-08-03T04:30:40.763Z,57128.34
2022-08-03T04:36:01.178Z,57128.34
2022-08-03T04:41:05.479Z,57128.34
2022-08-03T04:46:08.144Z,57128.34
2022-08-03T04:51:11.302Z,57128.34
2022-08-03T04:56:13.317Z,57128.34
2022-08-03T05:01:16.349Z,57128.34
2022-08-03T05:06:17.945Z,57128.34
2022-08-03T05:11:19.693Z,57128.34
2022-08-03T05:16:21.321Z,57128.34
2022-08-03T05:21:23.093Z,57128.34
2022-08-03T05:26:25.061Z,57128.34
2022-08-03T05:31:29.015Z,57128.34
2022-08-03T05:36:30.792Z,57128.34
2022-08-03T05:41:36.667Z,57128.34
2022-08-03T05:46:39.222Z,57128.34
2022-08-03T05:51:41.726Z,57128.34
2022-08-03T05:56:43.734Z,57128.34
2022-08-03T06:01:46.883Z,57128.34
2022-08-03T06:06:51.045Z,57128.34
2022-08-03T06:11:53.106Z,57128.34
2022-08-03T06:16:54.689Z,57128.34
2022-08-03T06:21:56.481Z,57128.34
2022-08-03T06:26:58.054Z,57128.34
2022-08-03T06:31:59.584Z,57128.34
2022-08-03T06:37:02.346Z,57128.34
2022-08-03T06:42:04.967Z,57128.34
2022-08-03T06:47:08.483Z,57128.34
2022-08-03T06:52:11.418Z,57128.34
2022-08-03T06:57:13.117Z,57128.34
2022-08-03T07:02:18.292Z,57128.34
2022-08-03T07:07:21.066Z,57128.34
2022-08-03T07:12:22.748Z,57128.34
2022-08-03T07:17:24.290Z,57128.34
2022-08-03T07:22:26.492Z,57128.34
2022-08-03T07:27:29.259Z,57128.34
2022-08-03T07:32:31.854Z,57128.34
2022-08-03T07:37:33.693Z,57128.34
2022-08-03T07:42:35.290Z,57128.34
2022-08-03T07:47:36.860Z,57128.34
2022-08-03T07:52:48.914Z,57128.34
2022-08-03T07:58:05.380Z,57128.34
2022-08-03T08:03:07.118Z,57128.34
2022-08-03T08:08:08.810Z,57128.34
2022-08-03T08:13:11.212Z,57128.34
2022-08-03T08:18:20.086Z,57128.34
2022-08-03T08:23:37.778Z,57128.34
2022-08-03T08:28:45.221Z,57128.34
2022-08-03T08:34:03.921Z,57128.34
2022-08-03T08:39:05.819Z,57128.34
2022-08-03T08:44:10.192Z,57128.34
2022-08-03T08:49:17.227Z,57128.34
2022-08-03T08:54:22.025Z,57128.34
2022-08-03T08:59:24.953Z,57128.34
2022-08-03T09:04:28.390Z,57128.34
2022-08-03T09:10:11.040Z,57128.34
2022-08-03T09:15:14.591Z,57128.34
2022-08-03T09:20:14.533Z,57128.34
2022-08-03T09:25:24.450Z,57128.34
2022-08-03T09:30:34.235Z,57128.34
2022-08-03T09:35:55.284Z,57128.34
2022-08-03T09:41:00.652Z,57128.34
2022-08-03T09:46:05.405Z,57128.34
2022-08-03T09:51:13.206Z,57128.34
2022-08-03T09:56:33.879Z,57128.34
2022-08-03T10:01:41.584Z,57128.34
2022-08-03T10:06:45.834Z,57128.34
2022-08-03T10:11:47.547Z,57128.34
2022-08-03T10:16:50.107Z,57128.34
2022-08-03T10:21:57.903Z,57128.34
2022-08-03T10:27:08.353Z,57128.34
2022-08-03T10:32:16.114Z,57128.34
2022-08-03T10:37:18.171Z,57128.34
2022-08-03T10:42:23.059Z,57128.34
2022-08-03T10:47:25.623Z,57128.34
2022-08-03T10:52:32.750Z,57128.34
2022-08-03T10:57:56.629Z,57128.34
2022-08-03T11:03:06.102Z,57128.34
2022-08-03T11:08:28.041Z,57128.34
2022-08-03T11:13:33.638Z,57128.34
2022-08-03T11:18:35.415Z,57128.34
2022-08-03T11:24:04.780Z,57128.34
2022-08-03T11:29:27.520Z,57128.34
2022-08-03T11:34:29.214Z,57128.34
2022-08-03T11:39:45.757Z,57128.34
2022-08-03T11:44:48.044Z,57128.34
2022-08-03T11:49:51.644Z,57128.34
2022-08-03T11:54:56.385Z,57128.34
2022-08-03T11:59:59.348Z,57128.34
2022-08-03T12:05:01.513Z,57128.34
2022-08-03T12:10:08.411Z,57128.34
2022-08-03T12:15:10.519Z,57128.34
2022-08-03T12:20:22.076Z,57128.34
2022-08-03T12:25:39.854Z,57128.34
2022-08-03T12:30:42.161Z,57128.34
2022-08-03T12:35:52.166Z,57128.34
2022-08-03T12:41:03.620Z,57128.34
2022-08-03T12:46:17.853Z,57128.34
2022-08-03T12:51:19.760Z,57128.34
2022-08-03T12:56:21.687Z,57128.34
2022-08-03T13:01:26.088Z,57128.34
2022-08-03T13:06:28.986Z,57128.34
2022-08-03T13:11:57.793Z,57128.34
2022-08-03T13:16:52.446Z,57128.34
2022-08-03T13:22:03.899Z,57128.34
2022-08-03T13:27:58.910Z,57128.34
2022-08-03T13:32:29.522Z,57128.34
2022-08-03T13:37:34.686Z,57128.34
2022-08-03T13:42:36.879Z,57128.34
2022-08-03T13:47:38.724Z,57128.34
2022-08-03T13:52:40.321Z,57128.34
2022-08-03T13:58:03.346Z,57128.34
2022-08-03T14:03:12.807Z,57128.34
2022-08-03T14:08:15.178Z,57128.34
2022-08-03T14:13:18.154Z,57128.34
2022-08-03T14:18:27.819Z,57128.34
2022-08-03T14:23:37.634Z,57128.34
2022-08-03T14:28:39.435Z,57128.34
2022-08-03T14:33:41.076Z,57128.34
2022-08-03T14:38:42.647Z,57128.34
2022-08-03T14:44:01.033Z,57128.34
2022-08-03T14:50:32.675Z,57128.34
2022-08-03T14:54:26.971Z,57128.34
2022-08-03T14:59:28.596Z,57128.34
2022-08-03T15:04:50.428Z,57128.34
2022-08-03T15:09:52.005Z,57128.34
2022-08-03T15:14:54.313Z,57128.34
2022-08-03T15:20:00.382Z,57128.34
2022-08-03T15:26:32.314Z,57128.34
2022-08-03T15:30:33.625Z,57128.34
2022-08-03T15:35:35.740Z,57128.34
2022-08-03T15:40:37.662Z,57128.34
2022-08-03T15:45:41.890Z,57128.34
2022-08-03T15:50:43.892Z,57128.34
2022-08-03T15:55:45.556Z,57128.34
2022-08-03T16:00:47.184Z,57128.34
2022-08-03T16:05:49.202Z,57128.34
2022-08-03T16:10:51.569Z,57128.34
2022-08-03T16:15:54.223Z,57128.34
2022-08-03T16:20:55.839Z,57128.34
2022-08-03T16:25:57.506Z,57128.34
2022-08-03T16:30:59.114Z,57128.34
2022-08-03T16:36:00.714Z,57128.34
2022-08-03T16:41:02.249Z,57128.34
2022-08-03T16:46:04.265Z,57128.34
2022-08-03T16:51:05.776Z,57128.34
2022-08-03T16:56:10.605Z,57128.34
2022-08-03T17:01:21.445Z,57128.34
2022-08-03T17:06:26.184Z,57128.34
2022-08-03T17:11:38.535Z,57128.34
2022-08-03T17:16:52.403Z,57128.34
2022-08-03T17:22:10.731Z,57128.34
2022-08-03T17:27:23.146Z,57128.34
2022-08-03T17:32:52.443Z,57128.34
2022-08-03T17:38:03.353Z,57128.34
2022-08-03T17:44:13.677Z,57128.34
2022-08-03T17:48:27.969Z,57128.34
2022-08-03T17:53:36.526Z,57128.34
2022-08-03T17:58:58.449Z,57128.34
2022-08-03T18:04:11.158Z,57128.34
2022-08-03T18:10:03.278Z,57128.34
2022-08-03T18:15:01.507Z,57128.34
2022-08-03T18:20:34.460Z,57128.34
2022-08-03T18:25:38.282Z,57128.34
2022-08-03T18:30:54.088Z,57128.34
2022-08-03T18:35:57.616Z,57128.34
2022-08-03T18:40:59.333Z,57128.34
2022-08-03T18:55:02.903Z,101292.91
2022-08-03T19:00:23.861Z,101301.41
2022-08-03T19:05:56.253Z,101309.66
2022-08-03T19:11:00.501Z,101314.25
2022-08-03T19:16:04.627Z,101322.81
2022-08-03T19:21:12.710Z,101320.75
2022-08-03T19:26:31.200Z,101323.22
2022-08-03T19:31:39.967Z,101326.25
2022-08-03T19:37:04.799Z,101325.91
2022-08-03T19:42:20.018Z,101332.03
2022-08-03T19:47:40.091Z,101335.84
2022-08-03T19:52:46.707Z,101329.84
2022-08-03T19:57:53.546Z,101343.63
2022-08-03T20:03:01.179Z,101342.25
2022-08-03T20:08:05.861Z,101338.97
2022-08-03T20:13:07.678Z,101340.19
2022-08-03T20:18:16.493Z,101343.06
2022-08-03T20:23:20.096Z,101343.25
2022-08-03T20:28:34.958Z,101340.78
2022-08-03T20:34:40.702Z,101337.28
2022-08-03T20:40:04.362Z,101329.63
2022-08-03T20:51:49.121Z,101330.91
2022-08-03T20:56:59.556Z,101332.88
2022-08-03T21:08:34.189Z,101325.03
2022-08-03T21:26:34.702Z,101308.66
2022-08-03T21:32:32.458Z,101299.13
2022-08-03T21:38:56.160Z,101306.31
2022-08-03T21:50:40.991Z,101300.38
2022-08-03T21:56:31.770Z,101300.59
2022-08-03T22:02:22.588Z,101282.91
2022-08-03T22:07:43.675Z,101290.22
2022-08-03T22:19:38.134Z,101282.59
2022-08-03T22:36:51.650Z,101273.03
2022-08-03T22:47:54.642Z,101271.44
2022-08-03T22:58:58.021Z,101272.47
2022-08-03T23:04:22.598Z,101270.72
2022-08-03T23:10:02.176Z,101261.06
2022-08-03T23:15:41.810Z,101267.38
2022-08-03T23:21:53.946Z,101261.25
2022-08-03T23:27:35.348Z,101243.59
2022-08-03T23:33:03.149Z,101251.59
2022-08-03T23:38:48.752Z,101241.94
2022-08-03T23:44:41.436Z,101245.53
2022-08-03T23:50:58.994Z,101243.84
2022-08-03T23:57:02.399Z,101245.66
